KVNY/VNY METAR and TAF weather

Enter ICAO airport designator
Station Type Date Time Source
KVNY METAR 2020/04/02 03:51 UTC NOAA

KVNY 020351Z 11007KT 10SM CLR 16/11 A2986 RMK AO2 SLP105 T01560111


Station Type Date Time Source
KVNY Decoded METAR 2020/04/02 03:51 UTC NOAA

VAN NUYS AIRPORT, CA, United States (KVNY) 34-13N 118-29W 245M
Apr 01, 2020 - 11:51 PM EDT / 2020.04.02 0351 UTC
Wind: from the ESE (110 degrees) at 8 MPH (7 KT):0
Visibility: 10 mile(s):0
Sky conditions: clear
Temperature: 60.1 F (15.6 C)
Dew Point: 52.0 F (11.1 C)
Relative Humidity: 74%
Pressure (altimeter): 29.86 in. Hg (1011 hPa)
ob: KVNY 020351Z 11007KT 10SM CLR 16/11 A2986 RMK AO2 SLP105 T01560111
cycle: 4

Station Type Date Time Source
KVNY TAF 2020/04/02 00:00 UTC NOAA

TAF KVNY 012358Z 0200/0224 15009KT P6SM SKC
FM020400 12004KT P6SM SKC
FM020900 11003KT 5SM BR BKN008
FM021300 VRB03KT P6SM OVC013
FM021600 12003KT P6SM FEW018
FM022000 15009KT P6SM SKC

Example: see airport list